Klawock Airport Klawock US
ICAO: PAKW
IATA:
Category: Medium
Scheduled Services:

Elevation: 80 ft
TransAlt. 18000 ft.

Airport Communications:
ASOS:135.45
ANCHORAGE CNTR:118.5
CTAF:120.9
KETCHIKAN RDO:122.25

PAKW Zoom In..

Runways:

(A) RW 02 length 5000 ft width 100 ft
---- / hdg 19

(B) RW 20 length 5000 ft width 100 ft
---- / hdg 199

Location; PAKW
Day. 20 / Time. 02.53 Zulu
* Altimeter: 30.20
* Temperature: 15° c. 59°f.
* Wind from: 200° Speed 08 kn.
Dewpoint: 12° c.
Visibility: 10 Statute Miles.
Clouds: Clear (automated report).

PAKW 200253Z AUTO 20008KT 10SM CLR 15/12 A3020 RMK AO2 SLP224 T01500117 55001 TSNO


Wind From 200°
Speed 08 kn.

 
 
jpsmedia.com for Web Design worldairports.se 2018   terms of use